Carolina, WV (26563)

3:30 PM EDT on August 24, 2016 (GMT -0400)
Pleasant Valley Station | | Change Station

Elev 1047 ft 39.44 °N, 80.17 °W | Updated 8 minutes ago

Scattered Clouds
Scattered Clouds
87.3 °F
Feels Like 97 °F
N
1.0
Wind Variable Wind from WSW
Gusts 5.0 mph

Today
High -- | Low -- °F
--% Chance of Precip.
Yesterday
High -- | Low -- °F
Precip. -- in
Pressure 30.17 in
Visibility 10.0 miles
Clouds Scattered Clouds 5000 ft
Heat Index 97 °F
Dew Point 76 °F
Humidity 68%
Rainfall 0.00 in
Snow Depth Not available.
6:42 AM 8:03 PM
Waning Gibbous, 54% visible
METAR KCKB 241853Z 20009KT 10SM SCT050 29/19 A3020 RMK AO2 SLP214 T02890189
Pressure 30.17 in
Visibility 10.0 miles
Clouds Scattered Clouds 5000 ft
Heat Index 97 °F
Dew Point 76 °F
Humidity 68%
Rainfall 0.00 in
Snow Depth Not available.
6:42 AM 8:03 PM
Waning Gibbous, 54% visible
METAR KCKB 241853Z 20009KT 10SM SCT050 29/19 A3020 RMK AO2 SLP214 T02890189

10-Day Weather Forecast

Almanac

Astronomy

Aug. 24, 2016 Rise Set
Actual Time
Civil Twilight
Nautical Twilight
Astronomical Twilight
Moon
Length of Visible Light
Length of Day
Tomorrow will be .
, % of the Moon is Illuminated

Today's Extremes

State Highs State Lows

Community

WunderPhotos

Upload Photos

1,934,689 photos uploaded!

WunderBlog® & News

Nearby

Air Quality

  Air Quality AQ Index Pollutant
Not available.

Snow Depth

Station Depth Elevation

Earthquake Activity

City Distance Mag. Time & Date
Minimum magnitude displayed is 2.5.

Coastal Water Temperatures

Place Temperature

Stations

Nearby Weather Stations

Station Location Temp. Windchill Dew Point Humidity Wind Precip. Elev Updated Type
                   

Watches & Warnings

There are currently no watches in effect.